createdAt,value
2023-04-13T00:02:19.826Z,98066.84
2023-04-13T00:04:46.513Z,98079.81
2023-04-13T00:07:16.912Z,98089.94
2023-04-13T00:09:45.380Z,98083.75
2023-04-13T00:12:12.690Z,98083.47
2023-04-13T00:14:39.239Z,98063.56
2023-04-13T00:17:05.866Z,98077.97
2023-04-13T00:19:36.759Z,98089.19
2023-04-13T00:22:04.496Z,98082.72
2023-04-13T00:24:31.083Z,98080.56
2023-04-13T00:26:57.618Z,98092.31
2023-04-13T00:29:24.202Z,98081.22
2023-04-13T00:31:50.750Z,98083.31
2023-04-13T00:34:17.245Z,98074.34
2023-04-13T00:36:43.837Z,98080.69
2023-04-13T00:39:10.504Z,98076.91
2023-04-13T00:41:37.055Z,98082.47
2023-04-13T00:44:03.642Z,98085.94
2023-04-13T00:46:31.547Z,98075.06
2023-04-13T00:49:01.705Z,98085.22
2023-04-13T00:51:30.341Z,98070.06
2023-04-13T00:53:59.441Z,98069.44
2023-04-13T00:56:27.336Z,98063.75
2023-04-13T00:58:55.197Z,98068.53
2023-04-13T01:01:21.839Z,98055.84
2023-04-13T01:03:49.638Z,98061.84
2023-04-13T01:06:34.021Z,98064.69
2023-04-13T01:09:11.251Z,98054.22
2023-04-13T01:11:43.684Z,98070.06
2023-04-13T01:14:23.273Z,98064.69
2023-04-13T01:16:57.329Z,98061.38
2023-04-13T01:19:56.866Z,98071.03
2023-04-13T01:22:27.313Z,98080.06
2023-04-13T01:25:18.433Z,98075.97
2023-04-13T01:27:50.760Z,98092.25
2023-04-13T01:30:26.309Z,98092.44
2023-04-13T01:32:53.577Z,98091.81
2023-04-13T01:35:25.622Z,98095.31
2023-04-13T01:37:52.338Z,98093.25
2023-04-13T01:40:21.216Z,98093.41
2023-04-13T01:42:47.925Z,98077.59
2023-04-13T01:45:18.586Z,98090.56
2023-04-13T01:47:54.482Z,98082.78
2023-04-13T01:50:46.097Z,98085.28
2023-04-13T01:53:17.356Z,98099.06
2023-04-13T01:55:44.807Z,98092.88
2023-04-13T01:58:13.533Z,98084.81
2023-04-13T02:00:41.249Z,98088.59
2023-04-13T02:03:09.899Z,98091.28
2023-04-13T02:05:42.941Z,98075.16
2023-04-13T02:08:09.697Z,98073.56
2023-04-13T02:10:37.711Z,98085.91
2023-04-13T02:13:04.520Z,98093.69
2023-04-13T02:15:35.609Z,98105.06
2023-04-13T02:18:02.370Z,98095.69
2023-04-13T02:20:30.703Z,98097.28
2023-04-13T02:22:57.187Z,98102.66
2023-04-13T02:25:23.930Z,98106.59
2023-04-13T02:27:51.558Z,98096.75
2023-04-13T02:30:18.077Z,98095.97
2023-04-13T02:32:49.476Z,98102.53
2023-04-13T02:35:16.129Z,98103.16
2023-04-13T02:37:42.760Z,98109.97
2023-04-13T02:40:12.534Z,98116.72
2023-04-13T02:42:39.499Z,98114.03
2023-04-13T02:45:07.792Z,98119.69
2023-04-13T02:47:34.870Z,98109.75
2023-04-13T02:50:02.049Z,98110.25
2023-04-13T02:52:28.802Z,98122.09
2023-04-13T02:54:55.414Z,98093.44
2023-04-13T02:57:22.488Z,98092.66
2023-04-13T02:59:49.673Z,98094.25
2023-04-13T03:02:17.396Z,98107.69
2023-04-13T03:04:44.535Z,98105.78
2023-04-13T03:07:14.582Z,98108.16
2023-04-13T03:09:41.808Z,98103.91
2023-04-13T03:12:09.212Z,98102.81
2023-04-13T03:14:36.881Z,98107.69
2023-04-13T03:17:08.316Z,98105.00
2023-04-13T03:19:36.209Z,98105.47
2023-04-13T03:22:02.882Z,98107.69
2023-04-13T03:24:29.536Z,98099.63
2023-04-13T03:26:57.071Z,98092.06
2023-04-13T03:29:24.488Z,98101.22
2023-04-13T03:31:51.561Z,98096.63
2023-04-13T03:34:18.700Z,98097.44
2023-04-13T03:36:45.880Z,98078.13
2023-04-13T03:39:12.415Z,98086.69
2023-04-13T03:41:39.003Z,98090.47
2023-04-13T03:44:05.871Z,98078.63
2023-04-13T03:46:33.249Z,98092.06
2023-04-13T03:48:59.938Z,98075.94
2023-04-13T03:51:27.832Z,98085.69
2023-04-13T03:53:55.072Z,98094.53
2023-04-13T03:56:21.669Z,98087.09
2023-04-13T03:58:48.228Z,98080.13
2023-04-13T04:01:15.011Z,98094.66
2023-04-13T04:03:41.665Z,98087.22
2023-04-13T04:06:08.928Z,98096.16
2023-04-13T04:08:35.793Z,98097.25
2023-04-13T04:11:02.980Z,98089.81
2023-04-13T04:13:29.535Z,98102.75
2023-04-13T04:15:56.578Z,98098.09
2023-04-13T04:18:23.249Z,98100.31
2023-04-13T04:20:49.767Z,98101.50
2023-04-13T04:23:19.794Z,98110.16
2023-04-13T04:25:46.857Z,98109.66
2023-04-13T04:28:18.005Z,98113.94
2023-04-13T04:30:45.817Z,98118.81
2023-04-13T04:33:14.495Z,98130.97
2023-04-13T04:35:51.488Z,98124.31
2023-04-13T04:38:18.523Z,98128.38
2023-04-13T04:40:45.679Z,98126.81
2023-04-13T04:43:13.401Z,98127.41
2023-04-13T04:45:43.734Z,98147.78
2023-04-13T04:48:11.890Z,98155.03
2023-04-13T04:50:38.596Z,98162.59
2023-04-13T04:53:05.635Z,98149.16
2023-04-13T04:55:33.239Z,98150.81
2023-04-13T04:57:59.840Z,98138.97
2023-04-13T05:00:26.689Z,98133.16
2023-04-13T05:02:53.473Z,98131.63
2023-04-13T05:05:20.439Z,98144.47
2023-04-13T05:07:47.067Z,98137.94
2023-04-13T05:10:13.563Z,98152.44
2023-04-13T05:12:40.148Z,98153.97
2023-04-13T05:15:07.499Z,98158.19
2023-04-13T05:17:34.828Z,98158.66
2023-04-13T05:20:01.565Z,98162.75
2023-04-13T05:22:28.220Z,98158.81
2023-04-13T05:24:54.750Z,98169.56
2023-04-13T05:27:21.410Z,98170.59
2023-04-13T05:29:48.099Z,98175.94
2023-04-13T05:32:14.730Z,98182.88
2023-04-13T05:34:41.353Z,98175.97
2023-04-13T05:37:08.629Z,98179.66
2023-04-13T05:39:35.263Z,98190.78
2023-04-13T05:42:01.881Z,98179.34
2023-04-13T05:44:28.374Z,98189.94
2023-04-13T05:46:55.056Z,98189.72
2023-04-13T05:49:21.648Z,98201.38
2023-04-13T05:51:48.338Z,98199.00
2023-04-13T05:54:14.927Z,98204.38
2023-04-13T05:56:41.498Z,98205.56
2023-04-13T05:59:08.760Z,98217.19
2023-04-13T06:01:36.511Z,98214.50
2023-04-13T06:04:03.877Z,98212.31
2023-04-13T06:06:30.704Z,98215.22
2023-04-13T06:08:57.671Z,98228.66
2023-04-13T06:11:25.960Z,98221.38
2023-04-13T06:13:52.509Z,98224.53
2023-04-13T06:16:19.163Z,98225.75
2023-04-13T06:18:45.943Z,98225.66
2023-04-13T06:21:12.577Z,98228.22
2023-04-13T06:23:39.273Z,98236.19
2023-04-13T06:26:06.880Z,98239.38
2023-04-13T06:28:33.652Z,98233.41
2023-04-13T06:31:00.568Z,98237.56
2023-04-13T06:33:27.881Z,98235.78
2023-04-13T06:35:54.422Z,98244.38
2023-04-13T06:38:20.987Z,98252.91
2023-04-13T06:40:47.571Z,98235.38
2023-04-13T06:43:26.326Z,98248.81
2023-04-13T06:45:59.883Z,98247.34
2023-04-13T06:48:27.084Z,98255.19
2023-04-13T06:50:57.196Z,98256.25
2023-04-13T06:53:23.928Z,98262.84
2023-04-13T06:55:50.976Z,98257.69
2023-04-13T06:58:17.563Z,98255.97
2023-04-13T07:00:44.671Z,98266.63
2023-04-13T07:03:11.521Z,98263.53
2023-04-13T07:05:38.980Z,98274.47
2023-04-13T07:08:06.461Z,98266.00
2023-04-13T07:10:33.059Z,98273.56
2023-04-13T07:12:59.594Z,98272.97
2023-04-13T07:15:26.293Z,98273.97
2023-04-13T07:17:52.893Z,98273.25
2023-04-13T07:20:19.557Z,98273.50
2023-04-13T07:22:46.287Z,98282.47
2023-04-13T07:25:12.791Z,98289.44
2023-04-13T07:27:39.383Z,98288.34
2023-04-13T07:30:06.864Z,98296.97
2023-04-13T07:32:33.433Z,98301.81
2023-04-13T07:35:02.098Z,98301.56
2023-04-13T07:37:29.751Z,98302.66
2023-04-13T07:39:56.381Z,98318.16
2023-04-13T07:42:24.681Z,98320.66
2023-04-13T07:44:54.585Z,98314.66
2023-04-13T07:47:21.467Z,98312.53
2023-04-13T07:49:47.972Z,98297.59
2023-04-13T07:52:14.615Z,98306.09
2023-04-13T07:54:41.329Z,98314.78
2023-04-13T07:57:07.878Z,98325.69
2023-04-13T07:59:34.428Z,98330.44
2023-04-13T08:02:01.056Z,98336.06
2023-04-13T08:04:27.856Z,98348.81
2023-04-13T08:06:54.515Z,98343.38
2023-04-13T08:09:21.322Z,98337.16
2023-04-13T08:11:49.554Z,98356.50
2023-04-13T08:14:16.694Z,98350.81
2023-04-13T08:16:43.433Z,98344.03
2023-04-13T08:19:10.096Z,98349.16
2023-04-13T08:21:38.632Z,98343.50
2023-04-13T08:24:06.440Z,98353.81
2023-04-13T08:26:33.004Z,98360.06
2023-04-13T08:28:59.756Z,98353.94
2023-04-13T08:31:27.036Z,98366.47
2023-04-13T08:33:53.723Z,98367.59
2023-04-13T08:36:20.752Z,98373.94
2023-04-13T08:38:47.604Z,98374.28
2023-04-13T08:41:16.858Z,98368.75
2023-04-13T08:43:43.570Z,98380.84
2023-04-13T08:46:11.410Z,98381.94
2023-04-13T08:48:59.045Z,98376.59
2023-04-13T08:51:26.647Z,98380.00
2023-04-13T08:53:53.760Z,98386.75
2023-04-13T08:56:24.146Z,98382.28
2023-04-13T08:59:07.578Z,98380.69
2023-04-13T09:01:37.558Z,98401.97
2023-04-13T09:04:11.931Z,98393.56
2023-04-13T09:06:41.530Z,98399.34
2023-04-13T09:09:10.870Z,98404.59
2023-04-13T09:11:38.185Z,98405.91
2023-04-13T09:14:04.790Z,98406.78
2023-04-13T09:16:42.241Z,98411.53
2023-04-13T09:19:10.138Z,98412.63
2023-04-13T09:21:37.885Z,98416.44
2023-04-13T09:24:06.050Z,98425.16
2023-04-13T09:26:46.537Z,98421.66
2023-04-13T09:29:14.656Z,98432.00
2023-04-13T09:31:42.959Z,98432.00
2023-04-13T09:34:12.055Z,98431.94
2023-04-13T09:36:49.556Z,98432.56
2023-04-13T09:39:28.282Z,98428.00
2023-04-13T09:41:55.743Z,98426.56
2023-04-13T09:44:28.339Z,98429.31
2023-04-13T09:47:02.483Z,98434.94
2023-04-13T09:49:49.773Z,98428.13
2023-04-13T09:52:23.749Z,98424.41
2023-04-13T09:54:59.909Z,98410.63
2023-04-13T09:57:28.212Z,98417.34
2023-04-13T09:59:56.475Z,98415.00
2023-04-13T10:02:23.449Z,98429.91
2023-04-13T10:04:50.237Z,98415.13
2023-04-13T10:07:16.935Z,98412.41
2023-04-13T10:09:44.325Z,98417.34
2023-04-13T10:12:14.736Z,98408.44
2023-04-13T10:14:44.310Z,98421.03
2023-04-13T10:17:36.158Z,98411.78
2023-04-13T10:20:12.707Z,98419.16
2023-04-13T10:22:45.084Z,98408.81
2023-04-13T10:25:29.157Z,98412.75
2023-04-13T10:27:59.380Z,98413.22
2023-04-13T10:30:26.747Z,98419.53
2023-04-13T10:33:06.006Z,98415.00
2023-04-13T10:35:43.284Z,98402.53
2023-04-13T10:38:10.830Z,98399.13
2023-04-13T10:40:48.138Z,98407.72
2023-04-13T10:43:31.020Z,98422.72
2023-04-13T10:46:08.323Z,98424.41
2023-04-13T10:48:35.511Z,98428.56
2023-04-13T10:51:02.289Z,98418.38
2023-04-13T10:53:31.002Z,98415.88
2023-04-13T10:55:57.936Z,98414.28
2023-04-13T10:58:25.358Z,98428.09
2023-04-13T11:00:52.285Z,98433.81
2023-04-13T11:03:19.203Z,98421.91
2023-04-13T11:05:48.413Z,98425.72
2023-04-13T11:08:19.318Z,98422.06
2023-04-13T11:10:56.538Z,98424.09
2023-04-13T11:13:27.145Z,98415.63
2023-04-13T11:16:04.157Z,98409.53
2023-04-13T11:18:31.091Z,98423.03
2023-04-13T11:20:57.741Z,98412.09
2023-04-13T11:23:24.728Z,98431.84
2023-04-13T11:25:59.912Z,98421.53
2023-04-13T11:28:43.654Z,98423.03
2023-04-13T11:31:11.630Z,98415.44
2023-04-13T11:33:40.571Z,98418.78
2023-04-13T11:36:08.086Z,98411.31
2023-04-13T11:38:34.854Z,98416.66
2023-04-13T11:41:14.917Z,98419.53
2023-04-13T11:43:46.235Z,98409.19
2023-04-13T11:46:15.493Z,98413.94
2023-04-13T11:48:43.193Z,98414.91
2023-04-13T11:51:11.162Z,98412.06
2023-04-13T11:53:38.802Z,98420.50
2023-04-13T11:56:06.665Z,98411.31
2023-04-13T11:58:33.406Z,98402.28
2023-04-13T12:01:12.765Z,98411.59
2023-04-13T12:03:53.616Z,98410.19
2023-04-13T12:06:27.925Z,98406.13
2023-04-13T12:09:09.081Z,98403.63
2023-04-13T12:11:42.119Z,98410.41
2023-04-13T12:14:49.828Z,98406.25
2023-04-13T12:17:34.905Z,98403.53
2023-04-13T12:20:03.769Z,98403.69
2023-04-13T12:22:50.793Z,98405.44
2023-04-13T12:25:21.134Z,98412.66
2023-04-13T12:27:52.585Z,98447.66
2023-04-13T12:30:21.261Z,98424.09
2023-04-13T12:32:50.875Z,98418.66
2023-04-13T12:35:19.423Z,98429.91
2023-04-13T12:37:47.646Z,98411.16
2023-04-13T12:40:15.950Z,98420.59
2023-04-13T12:42:43.778Z,98421.91
2023-04-13T12:45:11.116Z,98408.34
2023-04-13T12:47:38.204Z,98406.41
2023-04-13T12:50:06.356Z,98403.59
2023-04-13T12:52:32.961Z,98400.75
2023-04-13T12:55:00.266Z,98402.19
2023-04-13T12:57:28.321Z,98405.69
2023-04-13T12:59:56.281Z,98410.22
2023-04-13T13:02:24.349Z,98408.88
2023-04-13T13:04:51.911Z,98405.13
2023-04-13T13:07:19.118Z,98401.88
2023-04-13T13:09:45.977Z,98397.44
2023-04-13T13:12:12.836Z,98412.72
2023-04-13T13:14:39.390Z,98400.03
2023-04-13T13:17:05.963Z,98413.59
2023-04-13T13:19:32.494Z,98397.31
2023-04-13T13:22:00.299Z,98403.19
2023-04-13T13:24:27.077Z,98394.69
2023-04-13T13:27:19.603Z,98408.38
2023-04-13T13:29:41.508Z,98407.28
2023-04-13T13:32:09.312Z,98411.81
2023-04-13T13:34:36.045Z,98398.22
2023-04-13T13:37:03.090Z,98400.47
2023-04-13T13:39:29.665Z,98395.50
2023-04-13T13:41:57.377Z,98398.91
2023-04-13T13:44:25.009Z,98402.09
2023-04-13T13:46:51.713Z,98395.97
2023-04-13T13:49:18.269Z,98395.41
2023-04-13T13:51:44.842Z,98391.84
2023-04-13T13:54:11.406Z,98383.06
2023-04-13T13:56:38.035Z,98383.81
2023-04-13T13:59:04.717Z,98378.16
2023-04-13T14:06:59.863Z,98374.38
2023-04-13T14:09:27.794Z,98380.38
2023-04-13T14:11:54.677Z,98384.69
2023-04-13T14:14:22.727Z,98390.84
2023-04-13T14:16:49.433Z,98372.38
2023-04-13T14:19:16.007Z,98374.97
2023-04-13T14:21:42.692Z,98383.41
2023-04-13T14:24:09.372Z,98383.94
2023-04-13T14:26:38.217Z,98376.13
2023-04-13T14:29:05.259Z,98378.06
2023-04-13T14:31:31.852Z,98379.06
2023-04-13T14:33:58.341Z,98378.16
2023-04-13T14:36:25.468Z,98397.09
2023-04-13T14:38:52.568Z,98388.41
2023-04-13T14:41:19.374Z,98385.56
2023-04-13T14:43:45.866Z,98381.41
2023-04-13T14:46:13.445Z,98378.47
2023-04-13T14:48:40.092Z,98371.94
2023-04-13T14:51:07.176Z,98380.34
2023-04-13T14:53:33.756Z,98378.53
2023-04-13T14:56:00.334Z,98370.31
2023-04-13T14:58:26.909Z,98372.53
2023-04-13T15:00:54.172Z,98377.72
2023-04-13T15:03:22.007Z,98380.28
2023-04-13T15:05:49.871Z,98378.13
2023-04-13T15:08:19.400Z,98387.19
2023-04-13T15:10:46.503Z,98378.75
2023-04-13T15:13:13.220Z,98372.06
2023-04-13T15:15:40.772Z,98376.00
2023-04-13T15:18:08.289Z,98387.59
2023-04-13T15:20:34.889Z,98379.88
2023-04-13T15:23:01.513Z,98378.78
2023-04-13T15:25:28.555Z,98382.34
2023-04-13T15:27:57.213Z,98383.81
2023-04-13T15:30:29.306Z,98385.84
2023-04-13T15:32:57.527Z,98372.59
2023-04-13T15:35:27.465Z,98381.09
2023-04-13T15:37:54.534Z,98374.91
2023-04-13T15:40:22.978Z,98378.47
2023-04-13T15:42:49.594Z,98357.78
2023-04-13T15:45:16.193Z,98361.50
2023-04-13T15:47:42.814Z,98378.00
2023-04-13T15:50:09.776Z,98372.97
2023-04-13T15:52:39.002Z,98371.53
2023-04-13T15:55:07.044Z,98384.53
2023-04-13T15:57:34.059Z,98388.38
2023-04-13T16:00:01.150Z,98395.19
2023-04-13T16:02:28.126Z,98395.91
2023-04-13T16:04:54.997Z,98403.44
2023-04-13T16:07:21.673Z,98409.13
2023-04-13T16:09:51.323Z,98409.78
2023-04-13T16:12:18.053Z,98424.16
2023-04-13T16:14:47.131Z,98423.78
2023-04-13T16:17:17.118Z,98433.63
2023-04-13T16:19:46.964Z,98439.59
2023-04-13T16:22:13.750Z,98442.06
2023-04-13T16:24:41.098Z,98440.72
2023-04-13T16:27:08.729Z,98441.28
2023-04-13T16:29:35.565Z,98446.94
2023-04-13T16:32:02.384Z,98446.66
2023-04-13T16:34:29.382Z,98454.34
2023-04-13T16:36:56.601Z,98453.75
2023-04-13T16:39:23.281Z,98473.94
2023-04-13T16:41:50.252Z,98474.00
2023-04-13T16:44:16.972Z,98490.50
2023-04-13T16:46:43.563Z,98492.72
2023-04-13T16:49:10.406Z,98495.56
2023-04-13T16:51:37.022Z,98505.06
2023-04-13T16:54:04.595Z,98518.56
2023-04-13T16:56:31.248Z,98518.28
2023-04-13T16:58:58.370Z,98524.69
2023-04-13T17:01:25.714Z,98524.84
2023-04-13T17:03:53.354Z,98531.84
2023-04-13T17:06:20.613Z,98533.59
2023-04-13T17:08:47.223Z,98532.31
2023-04-13T17:11:13.808Z,98538.53
2023-04-13T17:13:40.559Z,98529.91
2023-04-13T17:16:09.857Z,98515.81
2023-04-13T17:18:36.658Z,98525.00
2023-04-13T17:21:03.402Z,98530.09
2023-04-13T17:23:30.103Z,98530.72
2023-04-13T17:25:56.715Z,98525.16
2023-04-13T17:28:24.090Z,98535.78
2023-04-13T17:30:50.900Z,98538.63
2023-04-13T17:33:17.613Z,98531.97
2023-04-13T17:35:44.207Z,98542.81
2023-04-13T17:38:11.034Z,98541.88
2023-04-13T17:40:37.578Z,98546.63
2023-04-13T17:43:05.744Z,98553.00
2023-04-13T17:45:32.383Z,98565.53
2023-04-13T17:47:58.994Z,98551.06
2023-04-13T17:50:25.671Z,98560.28
2023-04-13T17:52:52.202Z,98564.66
2023-04-13T17:55:18.923Z,98554.66
2023-04-13T17:57:45.477Z,98556.22
2023-04-13T18:00:12.810Z,98554.28
2023-04-13T18:02:39.540Z,98560.78
2023-04-13T18:05:07.344Z,98571.22
2023-04-13T18:07:33.872Z,98570.09
2023-04-13T18:10:00.505Z,98573.53
2023-04-13T18:12:27.086Z,98576.38
2023-04-13T18:14:53.909Z,98591.59
2023-04-13T18:17:21.604Z,98615.53
2023-04-13T18:19:52.258Z,98612.03
2023-04-13T18:22:18.748Z,98614.25
2023-04-13T18:24:45.348Z,98635.78
2023-04-13T18:27:12.356Z,98628.44
2023-04-13T18:29:38.931Z,98632.34
2023-04-13T18:32:05.667Z,98642.34
2023-04-13T18:34:34.488Z,98654.91
2023-04-13T18:37:02.689Z,98651.31
2023-04-13T18:39:29.225Z,98651.50
2023-04-13T18:41:55.796Z,98655.38
2023-04-13T18:44:22.349Z,98649.88
2023-04-13T18:46:48.865Z,98670.22
2023-04-13T18:49:16.864Z,98663.66
2023-04-13T18:51:43.888Z,98669.91
2023-04-13T18:54:10.438Z,98676.38
2023-04-13T18:56:37.012Z,98678.75
2023-04-13T18:59:03.504Z,98687.53
2023-04-13T19:01:30.088Z,98675.91
2023-04-13T19:03:56.892Z,98666.13
2023-04-13T19:06:23.883Z,98675.44
2023-04-13T19:08:50.442Z,98671.44
2023-04-13T19:11:17.770Z,98674.44
2023-04-13T19:13:46.297Z,98669.03
2023-04-13T19:16:13.985Z,98668.22
2023-04-13T19:18:40.528Z,98689.16
2023-04-13T19:21:07.119Z,98685.19
2023-04-13T19:23:33.680Z,98689.16
2023-04-13T19:26:00.236Z,98686.69
2023-04-13T19:28:27.037Z,98684.50
2023-04-13T19:30:55.085Z,98697.38
2023-04-13T19:33:21.616Z,98685.22
2023-04-13T19:35:49.331Z,98687.81
2023-04-13T19:38:16.170Z,98686.09
2023-04-13T19:40:43.577Z,98684.13
2023-04-13T19:43:10.111Z,98690.50
2023-04-13T19:45:36.845Z,98695.00
2023-04-13T19:48:03.512Z,98695.19
2023-04-13T19:50:30.142Z,98693.59
2023-04-13T19:52:58.420Z,98680.13
2023-04-13T19:55:25.274Z,98685.22
2023-04-13T19:57:51.852Z,98685.50
2023-04-13T20:00:20.137Z,98687.22
2023-04-13T20:02:49.864Z,98685.63
2023-04-13T20:05:18.216Z,98686.22
2023-04-13T20:07:44.852Z,98688.63
2023-04-13T20:10:12.340Z,98687.22
2023-04-13T20:12:39.037Z,98688.03
2023-04-13T20:15:06.304Z,98689.63
2023-04-13T20:17:33.002Z,98688.81
2023-04-13T20:20:00.191Z,98685.63
2023-04-13T20:22:26.823Z,98686.22
2023-04-13T20:24:53.402Z,98686.81
2023-04-13T20:27:21.816Z,98677.25
2023-04-13T20:29:49.481Z,98685.41
2023-04-13T20:32:16.132Z,98695.75
2023-04-13T20:34:43.645Z,98690.16
2023-04-13T20:37:10.288Z,98686.78
2023-04-13T20:39:40.299Z,98686.84
2023-04-13T20:42:08.269Z,98681.56
2023-04-13T20:44:38.195Z,98691.44
2023-04-13T20:47:05.396Z,98692.06
2023-04-13T20:49:32.046Z,98695.44
2023-04-13T20:52:02.072Z,98690.44
2023-04-13T20:54:28.623Z,98691.41
2023-04-13T20:56:55.160Z,98692.56
2023-04-13T20:59:21.941Z,98694.34
2023-04-13T21:01:49.010Z,98694.97
2023-04-13T21:04:15.728Z,98701.03
2023-04-13T21:06:42.469Z,98701.69
2023-04-13T21:09:09.221Z,98694.75
2023-04-13T21:11:35.951Z,98693.53
2023-04-13T21:14:02.969Z,98703.59
2023-04-13T21:16:30.006Z,98698.84
2023-04-13T21:18:57.096Z,98692.97
2023-04-13T21:21:25.108Z,98692.91
2023-04-13T21:23:52.633Z,98689.94
2023-04-13T21:26:19.234Z,98697.13
2023-04-13T21:28:45.786Z,98697.66
2023-04-13T21:31:12.311Z,98698.44
2023-04-13T21:33:38.846Z,98697.66
2023-04-13T21:38:40.982Z,98705.19
2023-04-13T21:41:18.010Z,98712.75
2023-04-13T21:43:44.944Z,98709.53
2023-04-13T21:46:13.234Z,98711.69
2023-04-13T21:48:40.737Z,98713.88
2023-04-13T21:51:08.885Z,98722.25
2023-04-13T21:53:36.435Z,98722.00
2023-04-13T21:56:04.365Z,98718.81
2023-04-13T21:58:41.821Z,98719.38
2023-04-13T22:01:08.805Z,98723.16
2023-04-13T22:03:40.150Z,98722.41
2023-04-13T22:06:08.679Z,98717.13
2023-04-13T22:08:35.535Z,98716.28
2023-04-13T22:11:02.881Z,98719.28
2023-04-13T22:13:29.927Z,98715.28
2023-04-13T22:15:56.714Z,98715.28
2023-04-13T22:18:23.384Z,98720.66
2023-04-13T22:20:50.084Z,98716.38
2023-04-13T22:23:16.610Z,98722.81
2023-04-13T22:25:51.029Z,98714.00
2023-04-13T22:28:17.574Z,98720.19
2023-04-13T22:30:44.424Z,98723.97
2023-04-13T22:33:11.104Z,98717.00
2023-04-13T22:35:37.651Z,98715.41
2023-04-13T22:38:04.166Z,98728.25
2023-04-13T22:40:31.127Z,98722.59
2023-04-13T22:42:57.616Z,98714.84
2023-04-13T22:45:24.104Z,98711.06
2023-04-13T22:47:54.115Z,98718.03
2023-04-13T22:50:20.806Z,98712.66
2023-04-13T22:52:47.321Z,98718.03
2023-04-13T22:55:14.041Z,98718.28
2023-04-13T22:57:40.573Z,98719.38
2023-04-13T23:00:07.662Z,98722.38
2023-04-13T23:02:34.477Z,98718.09
2023-04-13T23:05:01.299Z,98724.53
2023-04-13T23:07:27.932Z,98715.97
2023-04-13T23:09:54.481Z,98717.56
2023-04-13T23:12:21.151Z,98718.09
2023-04-13T23:14:47.652Z,98708.38
2023-04-13T23:17:14.473Z,98709.97
2023-04-13T23:19:41.072Z,98708.06
2023-04-13T23:22:07.652Z,98709.41
2023-04-13T23:24:34.193Z,98708.31
2023-04-13T23:27:00.739Z,98713.16
2023-04-13T23:29:27.333Z,98714.25
2023-04-13T23:31:57.468Z,98718.03
2023-04-13T23:34:24.061Z,98719.38
2023-04-13T23:36:50.704Z,98719.97
2023-04-13T23:39:17.260Z,98722.72
2023-04-13T23:41:43.784Z,98723.28
2023-04-13T23:44:11.061Z,98722.53
2023-04-13T23:46:38.686Z,98720.69
2023-04-13T23:49:05.786Z,98724.75
2023-04-13T23:51:32.313Z,98736.84
2023-04-13T23:53:58.910Z,98731.81
2023-04-13T23:56:26.095Z,98739.34
2023-04-13T23:58:52.642Z,98741.25
